Time;durP1;ratioP1;P1;durP2;ratioP2;P2;SDS_P1;SDS_P2;PMS_P1;PMS_P2;Temp;Humidity;BMP_temperature;BMP_pressure;BME280_temperature;BME280_humidity;BME280_pressure;Samples;Min_cycle;Max_cycle;Signal;HPM_P1;HPM_P2
2021/06/14 00:02:08;;;;;;;5.30;2.83;;;10.90;99.90;;;;;;4910184;29;20450;-81
2021/06/14 00:04:34;;;;;;;2.55;2.35;;;11.00;99.90;;;;;;4887987;29;20416;-86
2021/06/14 00:07:00;;;;;;;2.90;2.70;;;11.00;99.90;;;;;;4923765;29;20428;-85
2021/06/14 00:09:26;;;;;;;3.23;2.93;;;10.90;99.90;;;;;;4885585;29;20423;-80
2021/06/14 00:11:52;;;;;;;3.67;2.80;;;10.80;99.90;;;;;;4901170;29;20399;-84
2021/06/14 00:14:18;;;;;;;3.67;2.85;;;10.80;99.90;;;;;;4915073;29;20426;-81
2021/06/14 00:16:44;;;;;;;4.43;2.97;;;10.80;99.90;;;;;;4905550;29;20415;-91
2021/06/14 00:19:09;;;;;;;2.80;2.60;;;10.80;99.90;;;;;;4918846;29;20386;-90
2021/06/14 00:21:36;;;;;;;3.25;2.60;;;10.80;99.90;;;;;;4933784;29;20403;-88
2021/06/14 00:24:02;;;;;;;4.78;2.75;;;10.60;99.90;;;;;;4932233;28;20406;-91
2021/06/14 00:26:28;;;;;;;2.97;2.70;;;10.60;99.90;;;;;;4903066;29;20402;-90
2021/06/14 00:28:54;;;;;;;2.77;2.47;;;10.60;99.90;;;;;;4917863;29;20434;-89
2021/06/14 00:31:19;;;;;;;2.83;2.55;;;10.70;99.90;;;;;;4917992;29;20454;-89
2021/06/14 00:33:46;;;;;;;3.28;2.97;;;10.60;99.90;;;;;;4902969;29;20443;-88
2021/06/14 00:36:11;;;;;;;3.10;2.57;;;10.60;99.90;;;;;;4917720;29;21041;-89
2021/06/14 00:38:37;;;;;;;4.73;3.10;;;10.60;99.90;;;;;;4918848;29;20403;-90
2021/06/14 00:41:04;;;;;;;2.80;2.45;;;10.50;99.90;;;;;;4917574;29;20428;-91
2021/06/14 00:43:30;;;;;;;3.35;2.45;;;10.50;99.90;;;;;;4933599;28;20411;-91
2021/06/14 00:45:56;;;;;;;3.35;2.80;;;10.40;99.90;;;;;;4916031;29;20383;-86
2021/06/14 00:48:22;;;;;;;3.23;2.93;;;10.40;99.90;;;;;;4917021;29;20418;-90
2021/06/14 00:50:56;;;;;;;3.08;2.88;;;10.20;99.90;;;;;;4918216;29;20432;-90
2021/06/14 00:53:22;;;;;;;3.63;2.90;;;10.20;99.90;;;;;;4932714;29;20462;-90
2021/06/14 00:55:48;;;;;;;2.80;2.60;;;10.20;99.90;;;;;;4918351;29;20418;-90
2021/06/14 00:58:15;;;;;;;3.65;2.65;;;10.10;99.90;;;;;;4932704;29;20480;-89
2021/06/14 01:00:41;;;;;;;6.88;2.72;;;10.10;99.90;;;;;;4917285;29;20419;-90
2021/06/14 01:03:09;;;;;;;2.65;2.45;;;10.00;99.90;;;;;;4917910;29;20435;-89
2021/06/14 01:05:48;;;;;;;3.40;2.90;;;10.00;99.90;;;;;;4933194;29;20406;-90
2021/06/14 01:08:15;;;;;;;3.45;2.83;;;10.00;99.90;;;;;;4916151;29;20418;-89
2021/06/14 01:10:42;;;;;;;3.10;2.80;;;10.10;99.90;;;;;;4916902;29;20454;-88
2021/06/14 01:13:39;;;;;;;2.85;2.65;;;10.10;99.90;;;;;;4917488;29;20423;-90
2021/06/14 01:16:17;;;;;;;2.60;2.40;;;9.90;99.90;;;;;;4915485;29;20407;-86
2021/06/14 01:19:07;;;;;;;3.28;3.08;;;9.80;99.90;;;;;;4916135;29;20509;-90
2021/06/14 01:21:44;;;;;;;3.38;3.08;;;9.80;99.90;;;;;;4933142;29;20458;-90
2021/06/14 01:24:39;;;;;;;2.85;2.65;;;9.80;99.90;;;;;;4931715;29;20385;-87
2021/06/14 01:27:12;;;;;;;4.05;2.92;;;9.70;99.90;;;;;;4915466;29;20478;-86
2021/06/14 01:29:44;;;;;;;3.33;2.90;;;9.80;99.90;;;;;;4903441;29;20407;-89
2021/06/14 01:32:11;;;;;;;3.15;2.80;;;9.60;99.90;;;;;;4915713;29;20407;-89
2021/06/14 01:34:38;;;;;;;3.25;2.95;;;9.80;99.90;;;;;;4913046;29;20422;-90
2021/06/14 01:37:05;;;;;;;3.08;2.80;;;9.50;99.90;;;;;;4898062;29;20451;-91
2021/06/14 01:39:34;;;;;;;2.90;2.63;;;9.50;99.90;;;;;;4868250;29;20404;-90
2021/06/14 01:42:01;;;;;;;3.35;2.97;;;9.50;99.90;;;;;;4883283;29;20385;-90
2021/06/14 01:44:27;;;;;;;2.95;2.75;;;9.50;99.90;;;;;;4867100;29;20401;-91
2021/06/14 01:46:56;;;;;;;2.90;2.70;;;9.40;99.90;;;;;;4898060;29;20408;-90
2021/06/14 01:49:23;;;;;;;3.40;3.10;;;9.50;99.90;;;;;;4881533;29;20405;-88
2021/06/14 01:51:56;;;;;;;4.20;3.70;;;9.50;99.90;;;;;;4896531;29;20417;-84
2021/06/14 01:54:25;;;;;;;4.53;2.90;;;9.40;99.90;;;;;;4879629;29;20401;-90
2021/06/14 01:56:59;;;;;;;3.53;3.22;;;9.40;99.90;;;;;;4894102;29;20397;-85
2021/06/14 01:59:38;;;;;;;3.40;3.10;;;9.40;99.90;;;;;;4883072;29;20535;-90
2021/06/14 02:02:10;;;;;;;3.50;2.92;;;9.30;99.90;;;;;;4897152;29;20381;-90
2021/06/14 02:04:42;;;;;;;3.27;2.97;;;9.20;99.90;;;;;;4883288;29;20380;-90
2021/06/14 02:07:13;;;;;;;4.13;3.65;;;9.20;99.90;;;;;;4882676;29;21861;-83
2021/06/14 02:09:40;;;;;;;4.47;3.65;;;9.20;99.90;;;;;;4864892;29;20429;-88
2021/06/14 02:12:10;;;;;;;3.35;3.05;;;9.10;99.90;;;;;;4898644;29;20415;-90
2021/06/14 02:14:38;;;;;;;4.65;3.05;;;9.20;99.90;;;;;;4882217;29;20399;-91
2021/06/14 02:17:09;;;;;;;2.75;2.55;;;9.30;99.90;;;;;;4882169;29;20464;-90
2021/06/14 02:19:43;;;;;;;3.17;2.90;;;9.10;99.90;;;;;;4882638;29;20441;-90
2021/06/14 02:22:12;;;;;;;4.18;3.40;;;9.10;99.90;;;;;;4882462;29;20452;-91
2021/06/14 02:24:38;;;;;;;3.03;2.80;;;9.10;99.90;;;;;;4882831;29;20469;-90
2021/06/14 02:27:05;;;;;;;3.63;3.33;;;9.00;99.90;;;;;;4866629;29;20416;-89
2021/06/14 02:29:31;;;;;;;2.97;2.70;;;9.10;99.90;;;;;;4881987;29;20456;-86
2021/06/14 02:31:57;;;;;;;3.40;3.10;;;9.00;99.90;;;;;;4881609;29;20385;-89
2021/06/14 02:34:23;;;;;;;4.20;3.45;;;9.20;99.90;;;;;;4866560;29;20413;-90
2021/06/14 02:36:50;;;;;;;3.37;3.00;;;9.10;99.90;;;;;;4866427;29;20412;-91
2021/06/14 02:39:17;;;;;;;3.17;2.90;;;9.00;99.90;;;;;;4867081;29;20392;-90
2021/06/14 02:41:43;;;;;;;3.30;2.90;;;9.00;99.90;;;;;;4881393;29;20476;-91
2021/06/14 02:44:10;;;;;;;3.00;2.80;;;9.00;99.90;;;;;;4881494;29;20397;-91
2021/06/14 02:46:42;;;;;;;4.07;3.35;;;9.10;99.90;;;;;;4867620;29;20392;-84
2021/06/14 02:49:11;;;;;;;3.63;2.90;;;9.00;99.90;;;;;;4863337;29;20422;-92
2021/06/14 02:51:37;;;;;;;3.10;2.87;;;9.00;99.90;;;;;;4896780;29;20409;-90
2021/06/14 02:54:07;;;;;;;3.50;3.20;;;9.20;99.90;;;;;;4878394;29;20405;-90
2021/06/14 02:56:39;;;;;;;3.20;2.90;;;9.00;99.90;;;;;;4882399;29;20377;-89
2021/06/14 02:59:08;;;;;;;3.28;2.97;;;9.00;99.90;;;;;;4875816;29;20451;-82
2021/06/14 03:01:34;;;;;;;6.25;3.35;;;8.90;99.90;;;;;;4858711;29;20408;-81
2021/06/14 03:04:04;;;;;;;3.42;3.00;;;8.90;99.90;;;;;;4860797;29;20473;-81
2021/06/14 03:06:30;;;;;;;3.67;3.38;;;8.90;99.90;;;;;;4857336;29;22035;-80
2021/06/14 03:08:57;;;;;;;3.30;3.05;;;8.90;99.90;;;;;;4875482;29;20424;-81
2021/06/14 03:11:27;;;;;;;3.00;2.78;;;8.90;99.90;;;;;;4903826;29;20419;-81
2021/06/14 03:13:54;;;;;;;3.63;3.08;;;8.90;99.90;;;;;;4857997;29;20409;-79
2021/06/14 03:16:23;;;;;;;3.28;2.78;;;8.80;99.90;;;;;;4858100;29;20520;-79
2021/06/14 03:18:49;;;;;;;4.07;2.80;;;8.90;99.90;;;;;;4858614;29;20401;-81
2021/06/14 03:21:16;;;;;;;4.40;3.03;;;8.90;99.90;;;;;;4861289;29;20416;-81
2021/06/14 03:23:42;;;;;;;4.15;3.45;;;8.90;99.90;;;;;;4867995;29;20537;-80
2021/06/14 03:26:12;;;;;;;4.40;3.83;;;8.90;99.90;;;;;;4870786;29;20481;-80
2021/06/14 03:28:42;;;;;;;3.55;3.25;;;9.00;99.90;;;;;;4878321;29;20435;-80
2021/06/14 03:31:08;;;;;;;3.13;2.83;;;8.80;99.90;;;;;;4893037;29;20930;-80
2021/06/14 03:33:33;;;;;;;3.40;3.10;;;8.90;99.90;;;;;;4891152;29;20453;-80
2021/06/14 03:35:59;;;;;;;3.58;3.28;;;8.90;99.90;;;;;;4832815;29;20404;-79
2021/06/14 03:38:25;;;;;;;2.90;2.67;;;9.00;99.90;;;;;;4847660;29;20444;-81
2021/06/14 03:40:51;;;;;;;2.80;2.60;;;9.00;99.90;;;;;;4863509;29;20419;-81
2021/06/14 03:43:16;;;;;;;3.50;3.20;;;9.10;99.90;;;;;;4847533;29;20396;-80
2021/06/14 03:45:42;;;;;;;3.40;3.10;;;9.20;99.90;;;;;;4848975;29;20487;-79
2021/06/14 03:48:08;;;;;;;3.25;2.95;;;9.30;99.90;;;;;;4865720;29;20418;-81
2021/06/14 03:50:34;;;;;;;3.20;2.90;;;9.30;99.90;;;;;;4865959;29;20410;-82
2021/06/14 03:53:31;;;;;;;3.50;3.13;;;9.40;99.90;;;;;;4869440;29;20391;-88
2021/06/14 03:56:00;;;;;;;4.05;2.95;;;9.50;99.90;;;;;;4917811;29;20399;-82
2021/06/14 03:58:26;;;;;;;3.63;3.25;;;9.60;99.90;;;;;;4881804;29;20409;-88
2021/06/14 04:00:52;;;;;;;3.20;3.00;;;9.70;99.90;;;;;;4879190;29;20395;-82
2021/06/14 04:03:17;;;;;;;3.30;3.00;;;9.80;99.90;;;;;;4860872;29;20406;-85
2021/06/14 04:05:45;;;;;;;3.30;3.00;;;9.90;99.90;;;;;;4896261;29;20449;-82
2021/06/14 04:08:20;;;;;;;3.08;2.80;;;10.10;99.90;;;;;;4878818;29;20430;-89
2021/06/14 04:10:46;;;;;;;3.33;3.03;;;10.10;99.90;;;;;;4864446;29;20445;-88
2021/06/14 04:13:12;;;;;;;4.20;3.20;;;10.40;99.90;;;;;;4880540;29;20410;-89
2021/06/14 04:15:38;;;;;;;3.00;2.80;;;10.40;99.90;;;;;;4848116;29;20401;-83
2021/06/14 04:18:04;;;;;;;5.33;3.43;;;10.50;99.90;;;;;;4855062;29;20406;-87
2021/06/14 04:20:30;;;;;;;3.88;3.30;;;10.60;99.90;;;;;;4851566;29;20442;-83
2021/06/14 04:22:56;;;;;;;3.70;3.40;;;10.70;99.90;;;;;;4876118;29;20503;-88
2021/06/14 04:25:21;;;;;;;4.03;3.63;;;10.70;99.90;;;;;;4865423;29;20402;-90
2021/06/14 04:27:47;;;;;;;3.83;3.53;;;11.10;99.90;;;;;;4879953;29;20477;-90
2021/06/14 04:30:16;;;;;;;4.65;3.75;;;11.00;99.90;;;;;;4848806;29;20469;-90
2021/06/14 04:32:43;;;;;;;3.63;3.00;;;11.10;99.90;;;;;;4864826;29;20393;-89
2021/06/14 04:35:10;;;;;;;3.80;3.40;;;11.20;99.90;;;;;;4881847;29;20462;-89
2021/06/14 04:37:35;;;;;;;3.72;2.80;;;11.40;99.90;;;;;;4887023;29;20410;-91
2021/06/14 04:40:01;;;;;;;4.22;3.42;;;11.60;99.90;;;;;;4872197;29;20478;-89
2021/06/14 04:42:28;;;;;;;3.40;3.10;;;11.70;99.90;;;;;;4886561;29;20399;-91
2021/06/14 04:44:54;;;;;;;5.60;3.70;;;11.90;99.90;;;;;;4902718;29;20426;-85
2021/06/14 04:47:20;;;;;;;4.90;3.60;;;12.10;99.90;;;;;;4854092;29;20395;-79
2021/06/14 04:49:46;;;;;;;3.57;3.10;;;12.20;99.90;;;;;;4851184;29;20427;-80
2021/06/14 04:52:28;;;;;;;4.10;3.70;;;12.40;99.90;;;;;;4853164;29;20485;-83
2021/06/14 04:54:54;;;;;;;3.58;3.08;;;12.50;99.90;;;;;;4886759;29;20412;-84
2021/06/14 04:57:20;;;;;;;3.50;3.20;;;12.70;99.90;;;;;;4888904;29;20411;-79
2021/06/14 04:59:46;;;;;;;3.65;3.35;;;12.90;99.90;;;;;;4903364;29;20415;-78
2021/06/14 05:02:12;;;;;;;3.30;2.80;;;13.00;99.90;;;;;;4862692;29;20475;-77
2021/06/14 05:04:38;;;;;;;3.22;3.03;;;13.10;99.90;;;;;;4842525;29;20854;-80
2021/06/14 05:07:03;;;;;;;3.60;3.23;;;13.30;99.90;;;;;;4844834;29;20411;-79
2021/06/14 05:09:29;;;;;;;3.35;3.05;;;13.40;99.90;;;;;;4829144;29;20448;-80
2021/06/14 05:11:55;;;;;;;3.80;3.40;;;13.60;99.90;;;;;;4830250;29;20405;-80
2021/06/14 05:14:21;;;;;;;3.22;2.92;;;13.70;99.90;;;;;;4845504;29;20487;-78
2021/06/14 05:16:46;;;;;;;3.10;2.90;;;13.80;99.90;;;;;;4854597;29;20408;-80
2021/06/14 05:19:12;;;;;;;3.22;2.80;;;13.90;99.90;;;;;;4895195;29;20437;-79
2021/06/14 05:21:38;;;;;;;4.35;3.50;;;14.10;99.90;;;;;;4904235;29;20411;-78
2021/06/14 05:24:04;;;;;;;3.10;2.90;;;14.10;99.90;;;;;;4880417;29;20496;-79
2021/06/14 05:26:30;;;;;;;3.40;3.10;;;14.20;99.90;;;;;;4859745;29;20421;-78
2021/06/14 05:28:56;;;;;;;3.95;3.22;;;14.30;99.90;;;;;;4829168;29;20435;-79
2021/06/14 05:31:21;;;;;;;3.53;2.97;;;14.60;99.90;;;;;;4839012;29;20462;-79
2021/06/14 05:33:47;;;;;;;4.22;3.33;;;14.70;99.90;;;;;;4879294;29;20432;-78
2021/06/14 05:36:12;;;;;;;3.80;3.00;;;14.80;99.90;;;;;;4843569;29;20404;-76
2021/06/14 05:38:38;;;;;;;3.70;3.30;;;14.90;99.90;;;;;;4845687;29;20419;-77
2021/06/14 05:41:04;;;;;;;3.27;2.97;;;15.10;99.90;;;;;;4857800;29;20435;-78
2021/06/14 05:43:30;;;;;;;3.47;2.80;;;15.30;99.90;;;;;;4838925;29;20858;-77
2021/06/14 05:45:55;;;;;;;2.92;2.72;;;15.50;99.90;;;;;;4861879;29;20439;-78
2021/06/14 05:48:21;;;;;;;4.03;3.13;;;15.50;99.90;;;;;;4889328;29;20574;-78
2021/06/14 05:50:47;;;;;;;3.10;2.85;;;15.80;99.90;;;;;;4889386;29;20415;-78
2021/06/14 05:53:12;;;;;;;4.30;2.70;;;15.90;99.90;;;;;;4887175;29;20481;-78
2021/06/14 05:55:38;;;;;;;3.03;2.73;;;15.90;99.90;;;;;;4836866;29;20911;-78
2021/06/14 05:58:04;;;;;;;4.53;2.97;;;16.00;99.90;;;;;;4856798;29;20419;-78
2021/06/14 06:00:30;;;;;;;3.17;2.87;;;16.30;99.90;;;;;;4828996;29;20411;-77
2021/06/14 06:02:55;;;;;;;3.45;2.92;;;16.30;99.90;;;;;;4880736;29;20419;-78
2021/06/14 06:05:21;;;;;;;2.97;2.78;;;16.70;99.90;;;;;;4890708;29;20474;-79
2021/06/14 06:07:47;;;;;;;3.20;2.90;;;17.00;99.90;;;;;;4844996;29;20424;-78
2021/06/14 06:10:13;;;;;;;2.83;2.63;;;17.20;99.90;;;;;;4901245;29;20409;-79
2021/06/14 06:12:39;;;;;;;3.35;2.85;;;17.50;99.90;;;;;;4886361;29;20427;-78
2021/06/14 06:15:14;;;;;;;4.18;2.90;;;17.70;99.90;;;;;;4859930;29;20408;-79
2021/06/14 06:17:40;;;;;;;4.38;3.08;;;17.70;99.90;;;;;;4860551;29;20400;-78
2021/06/14 06:20:07;;;;;;;4.03;2.90;;;17.80;99.90;;;;;;4855688;29;20412;-78
2021/06/14 06:22:35;;;;;;;3.47;3.17;;;17.90;99.90;;;;;;4875062;29;20421;-78
2021/06/14 06:25:03;;;;;;;5.05;2.83;;;18.10;99.90;;;;;;4866047;29;20825;-78
2021/06/14 06:27:28;;;;;;;3.13;2.75;;;18.30;99.90;;;;;;4892364;29;20412;-77
2021/06/14 06:29:54;;;;;;;3.97;3.33;;;18.60;99.90;;;;;;4906302;29;20419;-77
2021/06/14 06:32:20;;;;;;;3.80;2.95;;;18.70;99.90;;;;;;4909589;29;20477;-79
2021/06/14 06:34:45;;;;;;;5.67;3.27;;;19.00;99.90;;;;;;4839987;29;20939;-78
2021/06/14 06:37:11;;;;;;;3.13;2.83;;;19.20;99.90;;;;;;4861820;29;20804;-77
2021/06/14 06:39:37;;;;;;;3.35;2.95;;;19.40;99.90;;;;;;4898447;29;20415;-78
2021/06/14 06:42:03;;;;;;;2.57;2.37;;;19.60;99.90;;;;;;4887930;29;20407;-80
2021/06/14 06:44:30;;;;;;;3.20;2.90;;;19.80;99.90;;;;;;4874295;29;20411;-79
2021/06/14 06:46:55;;;;;;;3.28;2.47;;;20.00;99.90;;;;;;4855025;29;20432;-81
2021/06/14 06:49:21;;;;;;;2.60;2.40;;;20.10;99.90;;;;;;4854939;29;20435;-79
2021/06/14 06:51:46;;;;;;;3.70;2.80;;;20.10;99.90;;;;;;4863471;29;20408;-78
2021/06/14 06:54:12;;;;;;;3.30;2.40;;;20.20;99.90;;;;;;4888041;29;20780;-78
2021/06/14 06:56:42;;;;;;;2.60;2.33;;;20.50;99.90;;;;;;4879907;29;20457;-81
2021/06/14 06:59:09;;;;;;;2.58;2.35;;;20.60;99.90;;;;;;4853822;29;20828;-80
2021/06/14 07:01:35;;;;;;;2.58;2.38;;;20.80;99.90;;;;;;4850454;29;20437;-80
2021/06/14 07:04:01;;;;;;;2.50;2.23;;;21.10;99.90;;;;;;4872562;29;20411;-80
2021/06/14 07:06:27;;;;;;;2.85;2.33;;;21.10;99.90;;;;;;4861257;29;20403;-78
2021/06/14 07:08:56;;;;;;;2.30;2.10;;;21.10;99.90;;;;;;4848868;29;20516;-78
2021/06/14 07:11:24;;;;;;;2.30;2.10;;;21.20;99.90;;;;;;4855003;29;20411;-79
2021/06/14 07:13:50;;;;;;;2.65;2.10;;;21.30;99.90;;;;;;4856627;29;20408;-80
2021/06/14 07:16:15;;;;;;;3.80;2.50;;;21.50;99.90;;;;;;4867811;29;20422;-79
2021/06/14 07:18:41;;;;;;;3.55;2.28;;;21.80;99.90;;;;;;4853179;29;21031;-81
2021/06/14 07:21:07;;;;;;;2.47;2.20;;;22.10;99.90;;;;;;4867134;29;20450;-78
2021/06/14 07:23:32;;;;;;;3.57;2.30;;;21.80;99.90;;;;;;4868339;29;20425;-78
2021/06/14 07:25:58;;;;;;;2.58;2.15;;;22.00;99.90;;;;;;4878085;29;20766;-79
2021/06/14 07:28:24;;;;;;;2.53;2.00;;;22.00;99.90;;;;;;4898206;29;20427;-78
2021/06/14 07:30:50;;;;;;;4.55;2.58;;;22.10;99.90;;;;;;4875006;29;20399;-80
2021/06/14 07:33:15;;;;;;;1.90;1.80;;;22.20;99.90;;;;;;4876908;29;20492;-79
2021/06/14 07:35:41;;;;;;;1.80;1.70;;;21.90;99.90;;;;;;4833955;29;20915;-78
2021/06/14 07:38:07;;;;;;;2.67;2.25;;;22.10;99.90;;;;;;4873223;29;20411;-79
2021/06/14 07:40:32;;;;;;;3.43;2.17;;;21.80;99.90;;;;;;4839223;29;20416;-82
2021/06/14 07:42:58;;;;;;;8.68;2.30;;;21.90;99.90;;;;;;4882879;29;20886;-79
2021/06/14 07:45:25;;;;;;;2.50;2.13;;;21.90;99.90;;;;;;4852741;29;20970;-79
2021/06/14 07:47:52;;;;;;;2.13;1.92;;;22.20;99.90;;;;;;4866834;29;20943;-79
2021/06/14 07:50:17;;;;;;;2.38;1.98;;;22.50;99.90;;;;;;4856205;29;20967;-79
2021/06/14 07:52:43;;;;;;;1.97;1.87;;;22.70;99.90;;;;;;4885748;29;20493;-79
2021/06/14 07:55:13;;;;;;;4.22;2.50;;;23.00;99.90;;;;;;4839752;29;20502;-79
2021/06/14 07:57:39;;;;;;;3.00;1.90;;;23.00;99.90;;;;;;4812647;29;20424;-81
2021/06/14 08:00:05;;;;;;;2.40;2.20;;;23.00;99.90;;;;;;4856124;29;20428;-80
2021/06/14 08:02:37;;;;;;;2.40;2.00;;;23.10;99.90;;;;;;4863789;29;20412;-78
2021/06/14 08:05:05;;;;;;;3.90;2.60;;;23.20;99.90;;;;;;4853325;29;20405;-80
2021/06/14 08:07:32;;;;;;;2.20;2.00;;;23.30;99.90;;;;;;4858140;29;20416;-78
2021/06/14 08:10:01;;;;;;;2.20;2.00;;;23.50;99.90;;;;;;4861746;29;20496;-78
2021/06/14 08:12:27;;;;;;;3.42;1.98;;;23.50;99.90;;;;;;4840990;29;20412;-79
2021/06/14 08:14:53;;;;;;;2.03;1.80;;;23.70;99.90;;;;;;4836041;29;20399;-80
2021/06/14 08:17:20;;;;;;;2.13;1.92;;;23.80;99.90;;;;;;4879548;29;20412;-81
2021/06/14 08:20:04;;;;;;;5.03;2.15;;;24.20;99.90;;;;;;4855580;29;20768;-81
2021/06/14 08:25:09;;;;;;;2.03;1.67;;;24.80;99.90;;;;;;4857380;29;20435;-81
2021/06/14 08:27:36;;;;;;;2.47;2.17;;;24.90;99.90;;;;;;4841853;29;20414;-77
2021/06/14 08:30:07;;;;;;;1.83;1.73;;;24.80;99.90;;;;;;4903358;29;20415;-79
2021/06/14 08:32:33;;;;;;;2.20;2.00;;;24.90;99.90;;;;;;4885290;29;20785;-79
2021/06/14 08:34:59;;;;;;;1.90;1.67;;;25.00;99.90;;;;;;4857467;29;20426;-78
2021/06/14 08:37:24;;;;;;;4.90;2.40;;;25.00;99.90;;;;;;4834612;29;20403;-79
2021/06/14 08:39:50;;;;;;;2.72;1.88;;;25.00;99.90;;;;;;4852367;29;20414;-80
2021/06/14 08:42:16;;;;;;;2.70;2.07;;;25.30;99.90;;;;;;4859441;29;20501;-80
2021/06/14 08:44:42;;;;;;;2.50;2.00;;;25.00;97.90;;;;;;4905569;29;20921;-81
2021/06/14 08:47:07;;;;;;;2.47;2.10;;;25.10;98.50;;;;;;4857106;29;21116;-79
2021/06/14 08:49:36;;;;;;;2.50;2.30;;;24.80;98.30;;;;;;4827227;29;20420;-79
2021/06/14 08:52:02;;;;;;;2.20;2.00;;;24.90;98.90;;;;;;4841496;29;20498;-79
2021/06/14 08:54:27;;;;;;;3.10;2.10;;;25.00;99.90;;;;;;4835661;29;20651;-79
2021/06/14 08:56:54;;;;;;;1.92;1.80;;;25.50;99.90;;;;;;4886546;29;20412;-80
2021/06/14 08:59:20;;;;;;;2.20;2.00;;;26.00;98.40;;;;;;4861450;29;20417;-81
2021/06/14 09:01:46;;;;;;;2.13;1.90;;;26.10;96.30;;;;;;4889769;29;20822;-80
2021/06/14 09:04:11;;;;;;;3.33;2.03;;;26.60;97.50;;;;;;4885850;29;20484;-79
2021/06/14 09:06:37;;;;;;;3.13;2.10;;;26.90;95.20;;;;;;4856655;29;20427;-81
2021/06/14 09:09:07;;;;;;;2.33;1.80;;;27.00;94.40;;;;;;4838163;29;20474;-79
2021/06/14 09:11:35;;;;;;;2.15;1.77;;;27.10;93.80;;;;;;4895145;29;20492;-80
2021/06/14 09:14:01;;;;;;;2.40;1.88;;;27.20;91.90;;;;;;4887991;29;20559;-82
2021/06/14 09:16:30;;;;;;;2.83;2.15;;;27.20;92.70;;;;;;4847407;29;20462;-80
2021/06/14 09:18:56;;;;;;;1.90;1.77;;;27.20;90.30;;;;;;4880018;29;20491;-81
2021/06/14 09:21:24;;;;;;;1.80;1.67;;;27.30;85.00;;;;;;4873248;29;20442;-79
2021/06/14 09:23:51;;;;;;;1.77;1.67;;;27.40;91.10;;;;;;4873930;29;20443;-79
2021/06/14 09:26:40;;;;;;;3.30;1.90;;;28.10;90.30;;;;;;4889790;29;20404;-82
2021/06/14 09:29:07;;;;;;;2.97;2.10;;;27.60;88.20;;;;;;4857487;29;20796;-79
2021/06/14 09:31:40;;;;;;;2.58;2.10;;;27.70;88.50;;;;;;4857649;29;20400;-80
2021/06/14 09:34:07;;;;;;;2.03;1.85;;;27.80;84.50;;;;;;4876217;29;20412;-79
2021/06/14 09:36:33;;;;;;;1.80;1.67;;;27.70;81.90;;;;;;4874424;29;20450;-82
2021/06/14 09:39:15;;;;;;;1.80;1.70;;;27.70;82.20;;;;;;4846553;29;20472;-82
2021/06/14 09:41:51;;;;;;;2.53;1.90;;;28.00;84.50;;;;;;4843074;29;20484;-79
2021/06/14 09:44:29;;;;;;;1.90;1.63;;;27.90;78.20;;;;;;4850915;29;20416;-80
2021/06/14 09:47:10;;;;;;;1.95;1.77;;;28.30;81.80;;;;;;4890248;29;20411;-80
2021/06/14 09:49:36;;;;;;;3.40;2.10;;;28.30;80.10;;;;;;4880251;29;20420;-81
2021/06/14 09:52:03;;;;;;;2.13;1.80;;;28.30;77.50;;;;;;4904889;29;20412;-80
2021/06/14 09:54:33;;;;;;;2.00;1.80;;;28.80;80.70;;;;;;4873168;29;20493;-81
2021/06/14 09:57:00;;;;;;;1.90;1.70;;;28.80;76.80;;;;;;4874422;29;21036;-81
2021/06/14 09:59:27;;;;;;;2.17;1.88;;;28.70;75.30;;;;;;4846886;29;20413;-79
2021/06/14 10:02:05;;;;;;;2.78;2.22;;;28.60;72.50;;;;;;4841458;29;20409;-79
2021/06/14 10:04:31;;;;;;;2.83;1.98;;;28.50;73.70;;;;;;4873474;29;20497;-81
2021/06/14 10:07:07;;;;;;;1.75;1.65;;;28.50;75.70;;;;;;4861513;29;20406;-80
2021/06/14 10:09:41;;;;;;;1.92;1.73;;;28.70;70.60;;;;;;4885226;29;20431;-83
2021/06/14 10:12:28;;;;;;;3.03;2.00;;;28.90;73.00;;;;;;4839733;29;20499;-81
2021/06/14 10:14:56;;;;;;;2.28;1.80;;;28.70;70.20;;;;;;4901113;29;20413;-81
2021/06/14 10:17:41;;;;;;;2.15;1.75;;;28.60;70.70;;;;;;4859225;29;20411;-84
2021/06/14 10:20:07;;;;;;;1.75;1.65;;;28.60;71.80;;;;;;4907369;29;20784;-82
2021/06/14 10:22:33;;;;;;;2.00;1.80;;;29.10;73.90;;;;;;4905873;29;20504;-84
2021/06/14 10:24:59;;;;;;;2.10;1.90;;;29.70;70.00;;;;;;4883055;29;20441;-82
2021/06/14 10:27:24;;;;;;;2.10;1.90;;;29.90;68.50;;;;;;4835114;29;20417;-85
2021/06/14 10:29:50;;;;;;;3.95;2.15;;;30.20;67.10;;;;;;4863976;29;20757;-81
2021/06/14 10:32:16;;;;;;;1.90;1.80;;;30.10;69.90;;;;;;4865473;29;20484;-82
2021/06/14 10:34:43;;;;;;;2.57;1.70;;;29.70;67.40;;;;;;4870375;29;20418;-86
2021/06/14 10:37:12;;;;;;;2.10;1.60;;;29.70;71.40;;;;;;4863210;29;20912;-81
2021/06/14 10:39:41;;;;;;;1.77;1.67;;;29.70;63.80;;;;;;4875511;29;20494;-82
2021/06/14 10:42:07;;;;;;;1.70;1.60;;;30.00;67.00;;;;;;4900054;29;20436;-81
2021/06/14 10:44:33;;;;;;;1.80;1.70;;;29.90;67.90;;;;;;4904895;28;21027;-80
2021/06/14 10:46:59;;;;;;;1.80;1.42;;;30.40;65.80;;;;;;4830959;29;20483;-81
2021/06/14 10:49:28;;;;;;;2.08;1.98;;;30.80;66.50;;;;;;4917802;29;20547;-84
2021/06/14 10:52:01;;;;;;;2.08;1.90;;;31.30;66.90;;;;;;4852790;29;20465;-83
2021/06/14 10:54:41;;;;;;;1.53;1.43;;;31.60;63.90;;;;;;4857777;29;20411;-83
2021/06/14 10:57:09;;;;;;;1.85;1.60;;;31.90;63.70;;;;;;4868121;29;20433;-82
2021/06/14 10:59:37;;;;;;;2.13;1.95;;;31.70;56.80;;;;;;4884667;29;20410;-85
2021/06/14 11:02:07;;;;;;;4.40;2.50;;;32.00;61.40;;;;;;4899309;29;20418;-80
2021/06/14 11:04:33;;;;;;;1.77;1.67;;;32.50;58.50;;;;;;4885889;29;20506;-82
2021/06/14 11:06:59;;;;;;;1.40;1.30;;;32.90;56.90;;;;;;4875923;29;21021;-85
2021/06/14 11:09:39;;;;;;;2.43;2.07;;;32.40;56.90;;;;;;4901760;29;20983;-84
2021/06/14 11:12:05;;;;;;;2.85;1.80;;;32.30;59.70;;;;;;4909299;29;20396;-82
2021/06/14 11:14:51;;;;;;;1.85;1.65;;;32.20;58.70;;;;;;4880528;29;20752;-83
2021/06/14 11:17:24;;;;;;;2.03;1.92;;;32.60;58.40;;;;;;4877059;29;20405;-83
2021/06/14 11:19:59;;;;;;;1.95;1.75;;;32.40;57.50;;;;;;4858225;29;20412;-81
2021/06/14 11:22:35;;;;;;;1.80;1.70;;;32.60;55.30;;;;;;4859706;29;20946;-85
2021/06/14 11:25:01;;;;;;;2.08;1.88;;;32.00;56.90;;;;;;4871464;29;20963;-81
2021/06/14 11:27:39;;;;;;;3.47;2.07;;;31.90;59.60;;;;;;4872299;29;20437;-83
2021/06/14 11:30:12;;;;;;;2.20;1.80;;;31.70;55.50;;;;;;4852942;29;20431;-81
2021/06/14 11:32:38;;;;;;;1.65;1.55;;;31.80;58.80;;;;;;4902117;29;20596;-82
2021/06/14 11:35:04;;;;;;;4.50;1.83;;;32.30;58.60;;;;;;4885851;29;20409;-85
2021/06/14 11:37:43;;;;;;;2.08;1.60;;;33.20;57.60;;;;;;4868364;29;20405;-83
2021/06/14 11:40:10;;;;;;;2.15;1.60;;;33.60;55.40;;;;;;4864183;29;21040;-84
2021/06/14 11:42:50;;;;;;;1.77;1.63;;;33.70;52.50;;;;;;4873405;29;20427;-83
2021/06/14 11:45:24;;;;;;;1.50;1.40;;;33.90;56.40;;;;;;4881880;29;20415;-82
2021/06/14 11:47:51;;;;;;;1.70;1.60;;;33.90;50.40;;;;;;4863630;29;21027;-83
2021/06/14 11:50:25;;;;;;;1.63;1.52;;;33.50;52.80;;;;;;4835084;29;20420;-85
2021/06/14 11:52:58;;;;;;;1.65;1.55;;;33.50;52.10;;;;;;4848907;29;20488;-83
2021/06/14 11:55:24;;;;;;;3.05;1.67;;;32.30;51.50;;;;;;4863297;29;20408;-86
2021/06/14 11:57:57;;;;;;;1.75;1.60;;;32.10;55.00;;;;;;4864829;29;20419;-85
2021/06/14 12:00:31;;;;;;;2.08;1.92;;;32.60;54.00;;;;;;4835908;29;20439;-83
2021/06/14 12:02:57;;;;;;;2.08;1.95;;;33.10;56.10;;;;;;4851573;29;20408;-82
2021/06/14 12:05:33;;;;;;;2.20;1.90;;;33.30;53.20;;;;;;4853475;29;20429;-83
2021/06/14 12:07:59;;;;;;;4.70;2.03;;;33.60;52.60;;;;;;4858543;29;20404;-82
2021/06/14 12:10:25;;;;;;;1.83;1.70;;;33.20;53.40;;;;;;4847117;29;20420;-84
2021/06/14 12:13:11;;;;;;;3.13;1.73;;;33.50;58.40;;;;;;4849770;29;20413;-83
2021/06/14 12:15:40;;;;;;;4.20;1.95;;;33.90;54.50;;;;;;4888321;29;20401;-84
2021/06/14 12:18:06;;;;;;;2.38;1.75;;;34.10;53.60;;;;;;4863701;29;20407;-82
2021/06/14 12:20:35;;;;;;;2.25;2.00;;;34.20;53.10;;;;;;4900266;29;20383;-84
2021/06/14 12:23:11;;;;;;;1.75;1.65;;;34.00;51.00;;;;;;4904542;29;20413;-82
2021/06/14 12:25:37;;;;;;;1.60;1.50;;;34.40;52.20;;;;;;4888837;29;20479;-84
2021/06/14 12:28:05;;;;;;;1.70;1.60;;;34.60;53.20;;;;;;4845650;29;20401;-83
2021/06/14 12:30:31;;;;;;;3.08;2.03;;;34.90;50.50;;;;;;4869980;29;20414;-84
2021/06/14 12:32:56;;;;;;;1.70;1.60;;;34.50;48.50;;;;;;4888192;29;20415;-83
2021/06/14 12:35:22;;;;;;;1.97;1.77;;;34.80;52.20;;;;;;4891393;29;20413;-84
2021/06/14 12:37:49;;;;;;;2.10;1.90;;;34.70;47.00;;;;;;4835403;29;20512;-86
2021/06/14 12:40:21;;;;;;;2.90;1.98;;;35.00;53.00;;;;;;4847833;29;20418;-84
2021/06/14 12:43:03;;;;;;;2.20;1.77;;;34.90;50.30;;;;;;4832596;29;20789;-86
2021/06/14 12:45:29;;;;;;;3.70;1.70;;;34.70;50.00;;;;;;4875201;29;20401;-83
2021/06/14 12:47:56;;;;;;;2.40;1.80;;;35.20;51.60;;;;;;4898362;29;20403;-83
2021/06/14 12:50:26;;;;;;;1.90;1.63;;;35.50;51.80;;;;;;4882844;29;20388;-83
2021/06/14 12:52:53;;;;;;;1.93;1.80;;;35.60;48.50;;;;;;4880476;29;20421;-81
2021/06/14 12:55:20;;;;;;;3.17;1.65;;;35.20;48.90;;;;;;4877181;29;20416;-83
2021/06/14 12:57:46;;;;;;;2.00;1.90;;;35.50;49.50;;;;;;4858157;29;20405;-82